Detall de PIREP

Printer-friendly versionPDF version

[2009/06/24 15:54:00]
Flight IATA:CT3121
Pilot Number:011
Company ICAO:CAT
Aircraft Type:B738/F
PAX:160
Departing Airport: LEVC
Destination Airport: LEPA
Alternate Airport:LEBL
Online: VATSIM
Route:RIKOS A33 GATOS
Flight Level:FL180
No Slew and time accel
No pause
Crash detect
Detect pilot in Cockpit between each 30 and 45 minutes
15:54 Zero fuel Weight: 134301 Lbs, Fuel Weight: 13818 Lbs
15:54 VATSIM:LEVC 241530Z 08013KT 040V110 9999 FEW030 27/16 Q1008 NOSIG
15:54 VATSIM:LEPA 241530Z 21013KT CAVOK 26/14 Q1012 NOSIG
15:54 Parking Brakes off
16:08 Take-off
16:08 Take off Weight: 146889 Lbs
16:08 Wind: 104 @ 013 Knots Heading: 115
16:08 POS N39 29 22 W000 28 55
16:08 Flaps:4 at 167 Knots
16:08 Gear Up: 171 Knots
16:09 Flaps:3 at 184 Knots
16:09 Flaps:2 at 184 Knots
16:09 Flaps:1 at 186 Knots
16:09 Flaps:0 at 185 Knots
16:14 TOC
16:14 Fuel Weight: 1083
6 Lb
16:23 Wind:192@021 Knots Heading: 091 Ground Speed: 414 Knots Altitude 17890 ft
16:25 TOD
16:25 Fuel Weight: 9797 Lb
16:38 Wind:219@029 Knots Heading: 056 Ground Speed: 305 Knots Altitude 7004 ft
16:41 Flaps:1 at 280 Knots
16:41 Flaps:2 at 280 Knots
16:42 Flaps:3 at 259 Knots
16:42 Flaps:4 at 258 Knots
16:44 Flaps:5 at 179 Knots
16:44 Flaps:6 at 178 Knots
16:44 Gear Down: 176 Knots
16:44 Flaps:7 at 172 Knots
16:44 Flaps:8 at 169 Knots
16:45 TouchDown:Rate -45 ft/min Speed: 136 Knots
16:46 VATSIM:LEPA 241630Z 22011KT CAVOK 25/14 Q1011 NOSIG
16:46 Land
16:46 Wind:224@011 Knots
16:46 Heading: 239
16:46 Flight Duration: 00:38
16:46 Landing Weight: 142900 Lbs
16:46 POS N39 32 37 E002 44 14
16:50 Parking brakes on
16:50 Block to Block Duration: 00:56
16:50 Final Fuel: 8249 Lbls
16:50 Spent Fuel: 5568 Lbls
16:50 Flight Length: 98 NM
16:
50 TOD Land Length: 71 NM

Exportar CSV

Powered by Drupal - Modified by Danger4k